Versión en castellano
places Weather data articles

Conditions at Mairena del Aljarafe, Sevilla, Spain
Year Month Day Show

  Date        time        Out Temp.    Out hum.   Wind Dir.    Wind speed   SL Pressure   In T. Today rain 

   26-05-2018    08:05      15.3º(+0.6)     93%         -         0.0 km/h    1013.0 hpa     25.1º    0.0 mm
   26-05-2018    08:00      15.3º(+0.6)     93%         -         0.0 km/h    1012.9 hpa     25.1º    0.0 mm
   26-05-2018    07:55      15.3º(+0.6)     92%         -         0.0 km/h    1012.9 hpa     25.1º    0.0 mm
   26-05-2018    07:50      15.2º(+0.5)     93%      112 (E)      1.6 km/h    1012.9 hpa     25.1º    0.0 mm
   26-05-2018    07:45      15.2º(+0.4)     93%      112 (E)      3.2 km/h    1012.9 hpa     25.1º    0.0 mm
   26-05-2018    07:40      15.1º(+0.3)     93%      112 (E)      1.6 km/h    1012.9 hpa     25.1º    0.0 mm
   26-05-2018    07:35      15.0º(+0.3)     93%         -         0.0 km/h    1012.9 hpa     25.1º    0.0 mm
   26-05-2018    07:30      15.0º(+0.3)     93%      112 (E)      1.6 km/h    1012.8 hpa     25.1º    0.0 mm
   26-05-2018    07:25      14.9º(+0.3)     93%         -         0.0 km/h    1012.8 hpa     25.1º    0.0 mm
   26-05-2018    07:20      14.9º(+0.3)     92%      112 (E)      1.6 km/h    1012.7 hpa     25.1º    0.0 mm
   26-05-2018    07:15      14.9º(+0.3)     92%      112 (E)      4.8 km/h    1012.8 hpa     25.2º    0.0 mm
   26-05-2018    07:10      14.9º(+0.3)     92%         -         0.0 km/h    1012.8 hpa     25.2º    0.0 mm
   26-05-2018    07:05      14.8º(+0.2)     92%         -         0.0 km/h    1012.7 hpa     25.2º    0.0 mm
   26-05-2018    07:00      14.8º(+0.3)     92%         -         0.0 km/h    1012.7 hpa     25.2º    0.0 mm
   26-05-2018    06:55      14.8º(+0.2)     92%         -         0.0 km/h    1012.8 hpa     25.2º    0.0 mm
   26-05-2018    06:50      14.9º(+0.3)     92%         -         0.0 km/h    1012.7 hpa     25.2º    0.0 mm
   26-05-2018    06:45      14.9º(+0.3)     92%         -         0.0 km/h    1012.7 hpa     25.2º    0.0 mm
   26-05-2018    06:40      15.0º(+0.4)     92%         -         0.0 km/h    1012.6 hpa     25.2º    0.0 mm
   26-05-2018    06:35      15.1º(+0.4)     92%      135(SE)      1.6 km/h    1012.5 hpa     25.2º    0.0 mm
   26-05-2018    06:30      15.1º(+0.4)     92%      112 (E)      1.6 km/h    1012.4 hpa     25.2º    0.0 mm
   26-05-2018    06:25      15.1º(+0.4)     92%      112 (E)      3.2 km/h    1012.3 hpa     25.2º    0.0 mm
   26-05-2018    06:20      15.1º(+0.4)     92%      112 (E)      3.2 km/h    1012.4 hpa     25.2º    0.0 mm
   26-05-2018    06:15      15.2º(+0.5)     91%         -         0.0 km/h    1012.2 hpa     25.2º    0.0 mm
   26-05-2018    06:10      15.2º(+0.5)     91%         -         0.0 km/h    1012.2 hpa     25.2º    0.0 mm
   26-05-2018    06:05      15.2º(+0.5)     91%         -         0.0 km/h    1012.2 hpa     25.2º    0.0 mm
   26-05-2018    06:00      15.2º(+0.6)     91%         -         0.0 km/h    1012.2 hpa     25.2º    0.0 mm
   26-05-2018    05:55      15.3º(+0.7)     91%         -         0.0 km/h    1012.1 hpa     25.2º    0.0 mm
   26-05-2018    05:50      15.3º(+0.7)     91%         -         0.0 km/h    1012.2 hpa     25.2º    0.0 mm
   26-05-2018    05:45      15.3º(+0.7)     91%         -         0.0 km/h    1012.2 hpa     25.2º    0.0 mm
   26-05-2018    05:40      15.3º(+0.8)     91%         -         0.0 km/h    1012.2 hpa     25.2º    0.0 mm
   26-05-2018    05:35      15.3º(+0.8)     91%         -         0.0 km/h    1012.2 hpa     25.2º    0.0 mm
   26-05-2018    05:30      15.3º(+0.8)     91%         -         0.0 km/h    1012.3 hpa     25.2º    0.0 mm
   26-05-2018    05:25      15.3º(+0.9)     91%         -         0.0 km/h    1012.5 hpa     25.2º    0.0 mm
   26-05-2018    05:20      15.3º(+0.9)     91%         -         0.0 km/h    1012.3 hpa     25.2º    0.0 mm
   26-05-2018    05:15      15.4º(+1.0)     90%         -         0.0 km/h    1012.5 hpa     25.2º    0.0 mm
   26-05-2018    05:10      15.4º(+1.0)     90%      112 (E)      1.6 km/h    1012.5 hpa     25.3º    0.0 mm
   26-05-2018    05:05      15.5º(+1.1)     90%         -         0.0 km/h    1012.5 hpa     25.3º    0.0 mm
   26-05-2018    05:00      15.5º(+1.1)     90%      112 (E)      1.6 km/h    1012.5 hpa     25.3º    0.0 mm
   26-05-2018    04:55      15.6º(+1.3)     90%      112 (E)      1.6 km/h    1012.5 hpa     25.3º    0.0 mm
   26-05-2018    04:50      15.6º(+1.3)     90%         -         0.0 km/h    1012.5 hpa     25.3º    0.0 mm
   26-05-2018    04:45      15.6º(+1.3)     90%         -         0.0 km/h    1012.5 hpa     25.3º    0.0 mm
   26-05-2018    04:40      15.7º(+1.4)     90%         -         0.0 km/h    1012.4 hpa     25.3º    0.0 mm
   26-05-2018    04:35      15.7º(+1.3)     89%         -         0.0 km/h    1012.4 hpa     25.3º    0.0 mm
   26-05-2018    04:30      15.8º(+1.4)     89%         -         0.0 km/h    1012.5 hpa     25.3º    0.0 mm
   26-05-2018    04:25      15.9º(+1.5)     89%         -         0.0 km/h    1012.7 hpa     25.3º    0.0 mm
   26-05-2018    04:20      16.1º(+1.6)     89%         -         0.0 km/h    1012.7 hpa     25.3º    0.0 mm
   26-05-2018    04:15      16.2º(+1.6)     89%         -         0.0 km/h    1012.5 hpa     25.3º    0.0 mm
   26-05-2018    04:10      16.2º(+1.5)     89%         -         0.0 km/h    1012.5 hpa     25.3º    0.0 mm
   26-05-2018    04:05      16.3º(+1.6)     89%         -         0.0 km/h    1012.4 hpa     25.3º    0.0 mm
   26-05-2018    04:00      16.3º(+1.6)     89%         -         0.0 km/h    1012.5 hpa     25.3º    0.0 mm
   26-05-2018    03:55      16.3º(+1.7)     89%         -         0.0 km/h    1012.5 hpa     25.3º    0.0 mm
   26-05-2018    03:50      16.4º(+1.7)     89%         -         0.0 km/h    1012.6 hpa     25.3º    0.0 mm
   26-05-2018    03:45      16.5º(+1.9)     89%         -         0.0 km/h    1012.8 hpa     25.3º    0.0 mm
   26-05-2018    03:40      16.6º(+2.0)     89%         -         0.0 km/h    1012.9 hpa     25.3º    0.0 mm
   26-05-2018    03:35      16.6º(+2.0)     88%         -         0.0 km/h    1013.0 hpa     25.3º    0.0 mm
   26-05-2018    03:30      16.7º(+2.0)     88%         -         0.0 km/h    1012.9 hpa     25.3º    0.0 mm
   26-05-2018    03:25      16.7º(+2.0)     88%         -         0.0 km/h    1012.9 hpa     25.3º    0.0 mm
   26-05-2018    03:20      16.8º(+2.1)     88%         -         0.0 km/h    1012.9 hpa     25.3º    0.0 mm
   26-05-2018    03:15      16.9º(+2.2)     88%         -         0.0 km/h    1013.0 hpa     25.3º    0.0 mm
   26-05-2018    03:10      16.9º(+2.2)     88%         -         0.0 km/h    1013.0 hpa     25.3º    0.0 mm
   26-05-2018    03:05      16.9º(+2.2)     88%         -         0.0 km/h    1013.0 hpa     25.3º    0.0 mm
   26-05-2018    03:00      16.8º(+2.0)     88%         -         0.0 km/h    1013.1 hpa     25.3º    0.0 mm
   26-05-2018    02:55      16.9º(+2.1)     88%         -         0.0 km/h    1013.1 hpa     25.3º    0.0 mm
   26-05-2018    02:50      16.9º(+2.1)     88%         -         0.0 km/h    1013.1 hpa     25.3º    0.0 mm
   26-05-2018    02:45      16.9º(+2.1)     87%         -         0.0 km/h    1013.1 hpa     25.3º    0.0 mm
   26-05-2018    02:40      16.9º(+2.1)     87%         -         0.0 km/h    1013.1 hpa     25.3º    0.0 mm
   26-05-2018    02:35      16.9º(+2.1)     87%         -         0.0 km/h    1013.2 hpa     25.3º    0.0 mm
   26-05-2018    02:30      16.9º(+2.1)     87%         -         0.0 km/h    1013.2 hpa     25.3º    0.0 mm
   26-05-2018    02:25      16.9º(+2.1)     87%         -         0.0 km/h    1013.2 hpa     25.3º    0.0 mm
   26-05-2018    02:20      16.9º(+2.1)     87%         -         0.0 km/h    1013.2 hpa     25.3º    0.0 mm
   26-05-2018    02:15      16.9º(+2.1)     86%         -         0.0 km/h    1013.2 hpa     25.3º    0.0 mm
   26-05-2018    02:10      16.9º(+2.0)     86%         -         0.0 km/h    1013.2 hpa     25.3º    0.0 mm
   26-05-2018    02:05      17.0º(+2.1)     86%         -         0.0 km/h    1013.3 hpa     25.3º    0.0 mm
   26-05-2018    02:00      17.1º(+2.0)     86%         -         0.0 km/h    1013.2 hpa     25.3º    0.0 mm
   26-05-2018    01:55      17.1º(----)     86%         -         0.0 km/h    1013.2 hpa     25.3º    0.0 mm
   26-05-2018    01:50      17.1º(----)     86%         -         0.0 km/h    1013.2 hpa     25.3º    0.0 mm
   26-05-2018    01:45      17.1º(----)     86%         -         0.0 km/h    1013.2 hpa     25.3º    0.0 mm
   26-05-2018    01:40      17.2º(----)     85%         -         0.0 km/h    1013.2 hpa     25.4º    0.0 mm
   26-05-2018    01:35      17.2º(----)     85%         -         0.0 km/h    1013.3 hpa     25.4º    0.0 mm
   26-05-2018    01:30      17.2º(----)     85%         -         0.0 km/h    1013.5 hpa     25.4º    0.0 mm
   26-05-2018    01:25      17.3º(----)     85%         -         0.0 km/h    1013.5 hpa     25.4º    0.0 mm
   26-05-2018    01:20      17.3º(----)     85%         -         0.0 km/h    1013.5 hpa     25.4º    0.0 mm
   26-05-2018    01:15      17.3º(----)     85%         -         0.0 km/h    1013.4 hpa     25.4º    0.0 mm
   26-05-2018    01:10      17.3º(----)     85%      247(SW)      1.6 km/h    1013.4 hpa     25.4º    0.0 mm
   26-05-2018    01:05      17.3º(----)     85%      247(SW)      1.6 km/h    1013.5 hpa     25.4º    0.0 mm
   26-05-2018    01:00      17.3º(----)     85%         -         0.0 km/h    1013.5 hpa     25.4º    0.0 mm
   26-05-2018    00:55      17.3º(----)     84%      247(SW)      1.6 km/h    1013.4 hpa     25.4º    0.0 mm
   26-05-2018    00:50      17.3º(----)     84%         -         0.0 km/h    1013.4 hpa     25.4º    0.0 mm
   26-05-2018    00:45      17.3º(----)     84%      247(SW)      1.6 km/h    1013.5 hpa     25.4º    0.0 mm
   26-05-2018    00:40      17.3º(----)     84%      247(SW)      1.6 km/h    1013.4 hpa     25.4º    0.0 mm
   26-05-2018    00:35      17.3º(----)     84%      247(SW)      1.6 km/h    1013.6 hpa     25.4º    0.0 mm
   26-05-2018    00:30      17.3º(----)     83%      247(SW)      1.6 km/h    1013.6 hpa     25.4º    0.0 mm
   26-05-2018    00:25      17.4º(----)     83%      247(SW)      1.6 km/h    1013.5 hpa     25.4º    0.0 mm
   26-05-2018    00:20      17.4º(----)     83%      247(SW)      1.6 km/h    1013.6 hpa     25.4º    0.0 mm
   26-05-2018    00:15      17.4º(----)     83%         -         0.0 km/h    1013.6 hpa     25.4º    0.0 mm
   26-05-2018    00:10      17.4º(----)     83%         -         0.0 km/h    1013.6 hpa     25.4º    0.0 mm
   26-05-2018    00:05      17.5º(----)     83%         -         0.0 km/h    1013.6 hpa     25.4º    0.0 mm
   26-05-2018    00:00      17.4º(----)     83%      247(SW)      1.6 km/h    1013.9 hpa     25.4º    0.0 mm